Time;durP1;ratioP1;P1;durP2;ratioP2;P2;SDS_P1;SDS_P2;PMS_P1;PMS_P2;Temp;Humidity;BMP_temperature;BMP_pressure;BME280_temperature;BME280_humidity;BME280_pressure;Samples;Min_cycle;Max_cycle;Signal;HPM_P1;HPM_P2
2022/09/21 00:02:12;419393.00;1.40;723.15;0.00;0.00;0.62;;;;;15.40;1.00;;;;;;2264217;61;1393;-88
2022/09/21 00:04:39;398427.00;1.33;687.10;43674.00;0.15;76.24;;;;;15.30;1.00;;;;;;2266888;61;984;-86
2022/09/21 00:07:06;228763.00;0.76;395.42;0.00;0.00;0.62;;;;;15.40;1.00;;;;;;2268194;61;1942;-88
2022/09/21 00:09:33;387495.00;1.29;668.31;0.00;0.00;0.62;;;;;15.70;1.00;;;;;;2268272;61;1087;-86
2022/09/21 00:12:01;348424.00;1.16;601.15;0.00;0.00;0.62;;;;;15.70;1.00;;;;;;2268205;61;1417;-87
2022/09/21 00:14:28;492139.00;1.64;848.29;0.00;0.00;0.62;;;;;15.90;1.00;;;;;;2266292;61;1115;-87
2022/09/21 00:16:55;284863.00;0.95;491.90;0.00;0.00;0.62;;;;;15.90;1.00;;;;;;2264196;61;1096;-87
2022/09/21 00:19:23;284380.00;0.95;491.07;0.00;0.00;0.62;;;;;15.80;1.00;;;;;;2264125;61;1517;-87
2022/09/21 00:21:54;302025.00;1.01;521.40;0.00;0.00;0.62;;;;;15.80;1.00;;;;;;2265321;61;1398;-87
2022/09/21 00:24:21;537672.00;1.79;926.71;0.00;0.00;0.62;;;;;15.80;1.00;;;;;;2268207;61;1033;-86
2022/09/21 00:26:48;340960.00;1.14;588.32;0.00;0.00;0.62;;;;;15.70;1.00;;;;;;2268074;61;1931;-86
2022/09/21 00:29:15;375274.00;1.25;647.30;31783.00;0.11;55.67;;;;;16.00;1.00;;;;;;2268206;61;1031;-86
2022/09/21 00:31:42;465128.00;1.55;801.81;0.00;0.00;0.62;;;;;15.70;1.00;;;;;;2268186;61;1408;-87
2022/09/21 00:34:09;167769.00;0.56;290.42;0.00;0.00;0.62;;;;;15.40;1.00;;;;;;2269068;61;1067;-86
2022/09/21 00:36:37;232604.00;0.78;402.03;0.00;0.00;0.62;;;;;14.90;1.00;;;;;;2269504;61;1586;-86
2022/09/21 00:39:04;328231.00;1.09;566.45;0.00;0.00;0.62;;;;;14.50;1.00;;;;;;2269497;61;1330;-86
2022/09/21 00:41:33;406482.00;1.35;700.95;0.00;0.00;0.62;;;;;15.00;1.00;;;;;;2269475;61;1321;-87
2022/09/21 00:44:28;339662.00;1.13;586.09;0.00;0.00;0.62;;;;;15.10;1.00;;;;;;2266362;61;1081;-87
2022/09/21 00:46:58;210448.00;0.70;363.91;0.00;0.00;0.62;;;;;15.10;1.00;;;;;;2265434;61;1928;-86
2022/09/21 00:49:28;329171.00;1.10;568.06;0.00;0.00;0.62;;;;;15.40;1.00;;;;;;2265474;61;1107;-87
2022/09/21 00:51:58;285658.00;0.95;493.26;0.00;0.00;0.62;;;;;15.60;1.00;;;;;;2267686;61;1376;-86
2022/09/21 00:54:29;337799.00;1.13;582.89;0.00;0.00;0.62;;;;;15.60;1.00;;;;;;2269589;61;928;-87
2022/09/21 00:57:01;519286.00;1.73;895.04;57130.00;0.19;99.52;;;;;15.40;1.00;;;;;;2269386;61;1150;-85
2022/09/21 00:59:31;388181.00;1.29;669.49;0.00;0.00;0.62;;;;;15.30;1.00;;;;;;2269333;61;1444;-87
2022/09/21 01:01:59;185903.00;0.62;321.65;0.00;0.00;0.62;;;;;15.20;1.00;;;;;;2267277;61;1425;-88
2022/09/21 01:04:28;252854.00;0.84;436.86;0.00;0.00;0.62;;;;;15.10;1.00;;;;;;2265410;61;1129;-88
2022/09/21 01:07:00;646310.00;2.15;1114.25;43057.00;0.14;75.18;;;;;14.90;1.00;;;;;;2265401;61;2002;-87
2022/09/21 01:09:28;414920.00;1.38;715.46;0.00;0.00;0.62;;;;;15.10;1.00;;;;;;2265473;61;1003;-87
2022/09/21 01:12:11;445019.00;1.48;767.22;75072.00;0.25;130.52;;;;;15.20;1.00;;;;;;2267110;61;1278;-87
2022/09/21 01:14:58;604589.00;2.02;1042.14;70771.00;0.24;123.09;;;;;15.40;1.00;;;;;;2269421;61;1003;-87
2022/09/21 01:17:36;377097.00;1.26;650.44;391.00;0.00;1.30;;;;;15.50;1.00;;;;;;2269392;61;1448;-88
2022/09/21 01:20:38;338295.00;1.13;583.74;0.00;0.00;0.62;;;;;15.50;1.00;;;;;;2269390;61;930;-87
2022/09/21 01:23:32;668796.00;2.23;1153.17;73368.00;0.24;127.58;;;;;15.50;1.00;;;;;;2269326;61;1400;-86
2022/09/21 01:26:08;608279.00;2.03;1048.52;75323.00;0.25;130.96;;;;;15.10;1.00;;;;;;2269328;61;2008;-87
2022/09/21 01:29:01;622460.00;2.07;1073.02;63908.00;0.21;111.23;;;;;15.30;1.00;;;;;;2269333;61;1549;-87
2022/09/21 01:31:36;814429.00;2.71;1406.30;57405.00;0.19;99.99;;;;;15.50;1.00;;;;;;2269297;61;1396;-86
2022/09/21 01:34:12;653703.00;2.18;1127.04;72036.00;0.24;125.28;;;;;15.20;1.00;;;;;;2269469;61;973;-86
2022/09/21 01:36:42;509255.00;1.70;877.76;66499.00;0.22;115.71;;;;;15.30;1.00;;;;;;2269408;61;1462;-87
2022/09/21 01:39:13;770919.00;2.57;1330.45;117863.00;0.39;204.40;;;;;15.50;1.00;;;;;;2269318;61;1130;-87
2022/09/21 01:41:44;473715.00;1.58;816.58;68202.00;0.23;118.65;;;;;15.70;1.00;;;;;;2269347;61;1459;-85
2022/09/21 01:44:18;619741.00;2.07;1068.32;60226.00;0.20;104.87;;;;;15.60;1.00;;;;;;2269299;61;1008;-86
2022/09/21 01:46:47;526549.00;1.76;907.55;69257.00;0.23;120.48;;;;;15.80;1.00;;;;;;2268587;61;2178;-87
2022/09/21 01:49:20;621263.00;2.07;1070.95;70374.00;0.23;122.41;;;;;15.90;1.00;;;;;;2268738;61;1071;-86
2022/09/21 01:51:56;691897.00;2.31;1193.19;95305.00;0.32;165.47;;;;;15.80;1.00;;;;;;2268723;61;1623;-88
2022/09/21 01:54:28;584813.00;1.95;1008.00;68693.00;0.23;119.50;;;;;15.40;1.00;;;;;;2264640;61;1618;-85
2022/09/21 01:57:01;541549.00;1.81;933.39;68051.00;0.23;118.39;;;;;14.90;1.00;;;;;;2264566;61;1016;-87
2022/09/21 01:59:36;777224.00;2.59;1341.43;68397.00;0.23;118.99;;;;;14.80;1.00;;;;;;2264624;61;1041;-86
2022/09/21 02:02:09;477055.00;1.59;822.33;57367.00;0.19;99.92;;;;;14.80;1.00;;;;;;2267659;61;1373;-87
2022/09/21 02:04:38;534737.00;1.78;921.65;60499.00;0.20;105.34;;;;;14.80;1.00;;;;;;2268636;61;1636;-85
2022/09/21 02:07:07;850619.00;2.84;1469.55;103615.00;0.35;179.81;;;;;15.10;1.00;;;;;;2268640;61;1923;-86
2022/09/21 02:09:35;623778.00;2.08;1075.29;73993.00;0.25;128.66;;;;;15.30;1.00;;;;;;2268553;61;1816;-86
2022/09/21 02:12:03;706888.00;2.36;1219.19;96439.00;0.32;167.42;;;;;15.50;1.00;;;;;;2268598;61;1426;-86
2022/09/21 02:14:33;829135.00;2.76;1431.98;72364.00;0.24;125.85;;;;;15.40;1.00;;;;;;2268582;61;1309;-86
2022/09/21 02:17:11;816743.00;2.72;1410.34;72562.00;0.24;126.19;;;;;15.00;1.00;;;;;;2268654;61;1090;-87
2022/09/21 02:19:46;837311.00;2.79;1446.27;52865.00;0.18;92.14;;;;;14.80;1.00;;;;;;2268599;61;1631;-87
2022/09/21 02:22:18;870805.00;2.90;1504.90;21615.00;0.07;38.07;;;;;14.90;1.00;;;;;;2268562;61;1447;-85
2022/09/21 02:24:48;927492.00;3.09;1604.46;84819.00;0.28;147.36;;;;;15.20;1.00;;;;;;2268615;61;1120;-86
2022/09/21 02:27:27;761221.00;2.54;1313.57;70508.00;0.24;122.64;;;;;15.30;1.00;;;;;;2268512;61;1916;-87
2022/09/21 02:30:05;715984.00;2.39;1234.97;100507.00;0.34;174.45;;;;;15.40;1.00;;;;;;2268512;61;1090;-86
2022/09/21 02:32:40;802856.00;2.68;1386.10;101901.00;0.34;176.85;;;;;14.80;1.00;;;;;;2268519;61;1701;-86
2022/09/21 02:35:16;806271.00;2.69;1392.06;71265.00;0.24;123.95;;;;;14.60;1.00;;;;;;2268514;61;959;-87
2022/09/21 02:37:50;838309.00;2.79;1448.02;52996.00;0.18;92.37;;;;;14.60;1.00;;;;;;2268515;61;1035;-87
2022/09/21 02:40:27;125204080.00;417.35;79517272.00;0.00;0.00;0.62;;;;;14.30;1.00;;;;;;2268521;61;938;-86
2022/09/21 02:42:59;576902.00;1.92;994.35;0.00;0.00;0.62;;;;;14.40;1.00;;;;;;2268411;61;1614;-85
2022/09/21 02:45:32;575359.00;1.92;991.69;0.00;0.00;0.62;;;;;14.60;1.00;;;;;;2268501;61;1095;-88
2022/09/21 02:48:05;659959.00;2.20;1137.87;0.00;0.00;0.62;;;;;14.90;1.00;;;;;;2267691;61;2008;-87
2022/09/21 02:50:39;478912.00;1.60;825.53;16113.00;0.05;28.54;;;;;15.20;1.00;;;;;;2264524;61;942;-87
2022/09/21 02:53:09;618946.00;2.06;1066.94;0.00;0.00;0.62;;;;;15.40;1.00;;;;;;2264448;61;1445;-87
2022/09/21 02:55:37;618816.00;2.06;1066.72;0.00;0.00;0.62;;;;;15.40;1.00;;;;;;2264499;61;1423;-87
2022/09/21 02:58:10;498147.00;1.66;858.63;50483.00;0.17;88.02;;;;;15.20;1.00;;;;;;2265132;61;1106;-87
2022/09/21 03:00:39;784725.00;2.62;1354.50;70201.00;0.23;122.11;;;;;15.10;1.00;;;;;;2268475;61;956;-90
2022/09/21 03:03:16;700645.00;2.34;1208.36;66004.00;0.22;114.85;;;;;14.90;1.00;;;;;;2268476;61;1424;-86
2022/09/21 03:05:45;563894.00;1.88;971.92;0.00;0.00;0.62;;;;;14.60;1.00;;;;;;2268365;61;2014;-87
2022/09/21 03:08:12;690921.00;2.30;1191.50;0.00;0.00;0.62;;;;;14.50;1.00;;;;;;2268425;61;1426;-88
2022/09/21 03:10:39;884735.00;2.95;1529.33;25508.00;0.09;44.81;;;;;14.40;1.00;;;;;;2268447;61;1018;-86
2022/09/21 03:13:07;677685.00;2.26;1168.56;0.00;0.00;0.62;;;;;14.50;1.00;;;;;;2268472;61;1370;-87
2022/09/21 03:15:34;309856.00;1.03;534.86;0.00;0.00;0.62;;;;;14.50;1.00;;;;;;2268411;61;1078;-85
2022/09/21 03:18:03;408058.00;1.36;703.66;0.00;0.00;0.62;;;;;14.20;1.00;;;;;;2268403;61;1123;-87
2022/09/21 03:20:31;599085.00;2.00;1032.64;68313.00;0.23;118.85;;;;;14.00;1.00;;;;;;2268273;61;1107;-86
2022/09/21 03:22:58;957464.00;3.19;1657.28;66315.00;0.22;115.39;;;;;13.90;1.00;;;;;;2268273;61;1264;-87
2022/09/21 03:25:25;926853.00;3.09;1603.33;75753.00;0.25;131.70;;;;;14.00;1.00;;;;;;2268273;61;1537;-87
2022/09/21 03:30:37;528325.00;1.76;910.61;0.00;0.00;0.62;;;;;14.00;1.00;;;;;;2303063;40;3694;-87
2022/09/21 03:33:07;792829.00;2.64;1368.62;0.00;0.00;0.62;;;;;13.90;1.00;;;;;;2272341;61;1485;-87
2022/09/21 03:35:34;639800.00;2.13;1102.99;0.00;0.00;0.62;;;;;14.10;1.00;;;;;;2272294;61;1475;-86
2022/09/21 03:38:07;847202.00;2.82;1463.57;0.00;0.00;0.62;;;;;14.40;1.00;;;;;;2272359;61;960;-87
2022/09/21 03:40:34;542089.00;1.81;934.32;0.00;0.00;0.62;;;;;14.50;1.00;;;;;;2272300;61;1047;-86
2022/09/21 03:43:01;668955.00;2.23;1153.44;58048.00;0.19;101.10;;;;;14.20;1.00;;;;;;2272351;61;1275;-85
2022/09/21 03:45:28;575982.00;1.92;992.77;0.00;0.00;0.62;;;;;14.20;1.00;;;;;;2272394;61;997;-87
2022/09/21 03:47:56;691660.00;2.31;1192.78;0.00;0.00;0.62;;;;;14.00;1.00;;;;;;2272401;61;1931;-87
2022/09/21 03:50:27;464724.00;1.55;801.11;0.00;0.00;0.62;;;;;13.80;1.00;;;;;;2272360;61;1566;-87
2022/09/21 03:52:54;749417.00;2.50;1293.04;13084.00;0.04;23.29;;;;;13.60;1.00;;;;;;2272262;61;1384;-87
2022/09/21 03:55:21;548158.00;1.83;944.78;0.00;0.00;0.62;;;;;13.70;1.00;;;;;;2272303;61;1034;-87
2022/09/21 03:57:49;467129.00;1.56;805.25;0.00;0.00;0.62;;;;;13.70;1.00;;;;;;2272251;61;1070;-88
2022/09/21 04:00:16;582292.00;1.94;1003.65;56472.00;0.19;98.38;;;;;13.90;1.00;;;;;;2272317;61;1263;-87
2022/09/21 04:02:43;553345.00;1.84;953.73;0.00;0.00;0.62;;;;;13.90;1.00;;;;;;2272302;61;1368;-88
2022/09/21 04:05:13;667052.00;2.22;1150.15;0.00;0.00;0.62;;;;;13.80;1.00;;;;;;2272226;61;1030;-87
2022/09/21 04:07:44;622300.00;2.07;1072.74;0.00;0.00;0.62;;;;;14.00;1.00;;;;;;2272037;61;1990;-86
2022/09/21 04:10:14;689319.00;2.30;1188.72;0.00;0.00;0.62;;;;;14.30;1.00;;;;;;2272229;61;979;-87
2022/09/21 04:12:42;552336.00;1.84;951.99;0.00;0.00;0.62;;;;;14.40;1.00;;;;;;2272195;61;1370;-88
2022/09/21 04:15:11;623674.00;2.08;1075.12;0.00;0.00;0.62;;;;;14.70;1.00;;;;;;2272199;61;1471;-87
2022/09/21 04:17:38;568465.00;1.89;979.80;0.00;0.00;0.62;;;;;14.60;1.00;;;;;;2272193;61;1059;-87
2022/09/21 04:20:07;795519.00;2.65;1373.31;0.00;0.00;0.62;;;;;14.80;1.00;;;;;;2309128;40;3595;-87
2022/09/21 04:22:35;589291.00;1.96;1015.73;63841.00;0.21;111.12;;;;;15.00;1.00;;;;;;2272236;61;1386;-87
2022/09/21 04:25:04;414915.00;1.38;715.45;0.00;0.00;0.62;;;;;14.80;1.00;;;;;;2272251;61;1050;-87
2022/09/21 04:27:32;526955.00;1.76;908.25;0.00;0.00;0.62;;;;;14.30;1.00;;;;;;2272159;61;2016;-87
2022/09/21 04:29:59;637790.00;2.13;1099.52;0.00;0.00;0.62;;;;;14.20;1.00;;;;;;2272265;61;1114;-89
2022/09/21 04:32:27;411540.00;1.37;709.64;0.00;0.00;0.62;;;;;14.00;1.00;;;;;;2272058;61;1297;-88
2022/09/21 04:34:54;706680.00;2.36;1218.82;0.00;0.00;0.62;;;;;13.90;1.00;;;;;;2272214;61;1711;-89
2022/09/21 04:37:21;511193.00;1.70;881.10;0.00;0.00;0.62;;;;;14.30;1.00;;;;;;2272121;61;1268;-88
2022/09/21 04:39:48;763088.00;2.54;1316.82;26979.00;0.09;47.35;;;;;14.60;1.00;;;;;;2272198;61;1600;-89
2022/09/21 04:42:16;749646.00;2.50;1293.44;0.00;0.00;0.62;;;;;14.50;1.00;;;;;;2272124;61;1629;-87
2022/09/21 04:44:43;676494.00;2.25;1166.50;0.00;0.00;0.62;;;;;14.40;1.00;;;;;;2272138;61;1137;-88
2022/09/21 04:47:10;597003.00;1.99;1029.05;0.00;0.00;0.62;;;;;14.80;1.00;;;;;;2272103;61;2007;-88
2022/09/21 04:49:38;631434.00;2.10;1088.53;0.00;0.00;0.62;;;;;14.90;1.00;;;;;;2272157;61;1710;-86
2022/09/21 04:52:06;639059.00;2.13;1101.71;0.00;0.00;0.62;;;;;15.00;1.00;;;;;;2272221;61;1360;-86
2022/09/21 04:54:32;706786.00;2.36;1219.01;1023.00;0.00;2.39;;;;;15.10;1.00;;;;;;2272163;61;1033;-86
2022/09/21 04:56:59;726940.00;2.42;1253.99;0.00;0.00;0.62;;;;;15.10;1.00;;;;;;2272178;61;1033;-87
2022/09/21 04:59:28;535071.00;1.78;922.23;0.00;0.00;0.62;;;;;15.10;1.00;;;;;;2272123;61;1122;-87
2022/09/21 05:01:54;735687.00;2.45;1269.18;0.00;0.00;0.62;;;;;15.00;1.00;;;;;;2272149;61;1286;-87
2022/09/21 05:04:21;532212.00;1.77;917.30;0.00;0.00;0.62;;;;;13.50;1.00;;;;;;2272144;61;2279;-86
2022/09/21 05:06:48;809150.00;2.70;1397.09;0.00;0.00;0.62;;;;;13.50;1.00;;;;;;2272100;61;1994;-86
2022/09/21 05:12:01;560668.00;1.87;966.35;0.00;0.00;0.62;;;;;13.70;1.00;;;;;;2272137;61;1395;-89
2022/09/21 05:14:30;850765.00;2.84;1469.81;0.00;0.00;0.62;;;;;13.80;1.00;;;;;;2272187;61;1428;-87
2022/09/21 05:16:56;749261.00;2.50;1292.77;0.00;0.00;0.62;;;;;13.90;1.00;;;;;;2272161;61;922;-87
2022/09/21 05:19:23;567174.00;1.89;977.57;0.00;0.00;0.62;;;;;13.90;1.00;;;;;;2272136;61;1021;-87
2022/09/21 05:21:50;690187.00;2.30;1190.23;0.00;0.00;0.62;;;;;14.00;1.00;;;;;;2272760;61;1321;-87
2022/09/21 05:24:17;733218.00;2.44;1264.89;0.00;0.00;0.62;;;;;14.20;1.00;;;;;;2272874;61;1097;-87
2022/09/21 05:26:44;619085.00;2.06;1067.19;0.00;0.00;0.62;;;;;14.50;1.00;;;;;;2272772;61;1915;-87
2022/09/21 05:29:11;554883.00;1.85;956.38;0.00;0.00;0.62;;;;;14.50;1.00;;;;;;2272792;61;1009;-89
2022/09/21 05:31:48;769135.00;2.56;1327.35;0.00;0.00;0.62;;;;;14.50;1.00;;;;;;2272725;61;1392;-89
2022/09/21 05:34:38;497326.00;1.66;857.22;0.00;0.00;0.62;;;;;14.80;1.00;;;;;;2272797;61;945;-87
2022/09/21 05:37:14;580920.00;1.94;1001.29;35998.00;0.12;62.96;;;;;14.80;1.00;;;;;;2272728;61;1031;-88
2022/09/21 05:39:41;559302.00;1.86;964.00;0.00;0.00;0.62;;;;;14.60;1.00;;;;;;2272754;61;927;-88
2022/09/21 05:42:10;900867.00;3.00;1557.64;61643.00;0.21;107.32;;;;;14.70;1.00;;;;;;2272667;61;1292;-87
2022/09/21 05:44:38;618155.00;2.06;1065.58;58163.00;0.19;101.30;;;;;14.70;1.00;;;;;;2272718;61;1596;-87
2022/09/21 05:47:20;969223.00;3.23;1678.04;106125.00;0.35;184.14;;;;;15.20;1.00;;;;;;2272743;61;1993;-86
2022/09/21 05:49:58;532641.00;1.78;918.04;42082.00;0.14;73.49;;;;;16.00;1.00;;;;;;2272774;61;1073;-88
2022/09/21 05:52:38;872127.00;2.91;1507.22;15748.00;0.05;27.91;;;;;16.70;1.00;;;;;;2272803;61;1444;-87
2022/09/21 05:55:26;382765.00;1.28;660.18;0.00;0.00;0.62;;;;;17.10;1.00;;;;;;2269096;61;1094;-88
2022/09/21 05:58:01;404218.00;1.35;697.06;0.00;0.00;0.62;;;;;16.50;1.00;;;;;;2271449;61;1721;-88
2022/09/21 06:00:40;595266.00;1.98;1026.05;0.00;0.00;0.62;;;;;16.30;1.00;;;;;;2272598;61;2303;-87
2022/09/21 06:03:34;545409.00;1.82;940.05;0.00;0.00;0.62;;;;;16.70;1.00;;;;;;2272749;61;1471;-87
2022/09/21 06:06:03;322493.00;1.07;556.58;0.00;0.00;0.62;;;;;17.30;1.00;;;;;;2269900;61;1106;-88
2022/09/21 06:08:29;531400.00;1.77;915.90;55929.00;0.19;97.44;;;;;18.00;1.00;;;;;;2272695;61;2008;-88
2022/09/21 06:10:57;377303.00;1.26;650.79;0.00;0.00;0.62;;;;;18.30;1.00;;;;;;2272598;61;986;-88
2022/09/21 06:13:25;538718.00;1.80;928.51;0.00;0.00;0.62;;;;;18.80;1.00;;;;;;2270737;61;1650;-88
2022/09/21 06:15:52;373297.00;1.24;643.90;0.00;0.00;0.62;;;;;19.10;1.00;;;;;;2272710;61;1455;-90
2022/09/21 06:18:20;421628.00;1.41;726.99;0.00;0.00;0.62;;;;;19.20;1.00;;;;;;2272741;61;1039;-88
2022/09/21 06:20:48;392010.00;1.31;676.07;0.00;0.00;0.62;;;;;19.30;1.00;;;;;;2272578;61;1552;-84
2022/09/21 06:23:15;470267.00;1.57;810.65;0.00;0.00;0.62;;;;;19.50;1.00;;;;;;2272509;61;1427;-87
2022/09/21 06:25:42;350499.00;1.17;604.72;0.00;0.00;0.62;;;;;19.70;1.00;;;;;;2272737;61;1031;-86
2022/09/21 06:28:13;348972.00;1.16;602.09;0.00;0.00;0.62;;;;;19.70;1.00;;;;;;2272576;61;1990;-86
2022/09/21 06:30:41;678557.00;2.26;1170.07;0.00;0.00;0.62;;;;;19.20;1.00;;;;;;2272615;61;1094;-86
2022/09/21 06:33:09;407805.00;1.36;703.22;0.00;0.00;0.62;;;;;18.70;1.00;;;;;;2272535;61;1422;-86
2022/09/21 06:35:37;346181.00;1.15;597.30;0.00;0.00;0.62;;;;;18.60;1.00;;;;;;2272694;61;1032;-85
2022/09/21 06:38:07;347859.00;1.16;600.18;0.00;0.00;0.62;;;;;18.70;1.00;;;;;;2272578;61;1021;-86
2022/09/21 06:40:36;353184.00;1.18;609.33;0.00;0.00;0.62;;;;;18.80;1.00;;;;;;2272594;61;1146;-87
2022/09/21 06:43:05;398999.00;1.33;688.08;0.00;0.00;0.62;;;;;19.10;1.00;;;;;;2272414;61;1409;-86
2022/09/21 06:45:32;461044.00;1.54;794.78;0.00;0.00;0.62;;;;;19.00;1.00;;;;;;2272380;61;1029;-86
2022/09/21 06:47:59;278586.00;0.93;481.11;0.00;0.00;0.62;;;;;18.90;1.00;;;;;;2272405;61;2209;-86
2022/09/21 06:50:26;278222.00;0.93;480.48;0.00;0.00;0.62;;;;;18.70;1.00;;;;;;2272491;61;1074;-85
2022/09/21 06:52:53;467469.00;1.56;805.83;0.00;0.00;0.62;;;;;19.70;1.00;;;;;;2272500;61;1368;-85
2022/09/21 06:55:21;439945.00;1.47;758.49;0.00;0.00;0.62;;;;;20.70;1.00;;;;;;2272535;61;1068;-86
2022/09/21 06:57:50;437558.00;1.46;754.38;0.00;0.00;0.62;;;;;21.20;1.00;;;;;;2272576;61;1107;-86
2022/09/21 07:00:19;119177384.00;397.26;68568968.00;0.00;0.00;0.62;;;;;20.50;1.00;;;;;;2272504;61;978;-87
2022/09/21 07:02:46;358657.00;1.20;618.74;0.00;0.00;0.62;;;;;20.20;1.00;;;;;;2272428;61;1982;-87
2022/09/21 07:05:13;683937.00;2.28;1179.39;14111.00;0.05;25.07;;;;;19.90;1.00;;;;;;2272425;61;991;-86
2022/09/21 07:07:40;390637.00;1.30;673.71;0.00;0.00;0.62;;;;;20.00;1.00;;;;;;2272417;61;1993;-86
2022/09/21 07:10:08;280932.00;0.94;485.14;0.00;0.00;0.62;;;;;20.50;1.00;;;;;;2272478;61;1118;-87
2022/09/21 07:12:37;226027.00;0.75;390.71;0.00;0.00;0.62;;;;;20.20;1.00;;;;;;2272425;61;1364;-85
2022/09/21 07:15:05;333348.00;1.11;575.24;0.00;0.00;0.62;;;;;20.50;1.00;;;;;;2272427;61;1249;-86
2022/09/21 07:17:34;485082.00;1.62;836.14;0.00;0.00;0.62;;;;;19.80;1.00;;;;;;2272380;61;1021;-86
2022/09/21 07:20:01;345703.00;1.15;596.48;0.00;0.00;0.62;;;;;19.60;1.00;;;;;;2272356;61;1005;-87
2022/09/21 07:22:29;359876.00;1.20;620.84;0.00;0.00;0.62;;;;;19.90;1.00;;;;;;2272425;61;1500;-86
2022/09/21 07:24:56;301684.00;1.01;520.81;0.00;0.00;0.62;;;;;20.40;1.00;;;;;;2272546;61;1040;-86
2022/09/21 07:27:24;169409.00;0.56;293.25;0.00;0.00;0.62;;;;;21.10;1.00;;;;;;2272422;61;1998;-87
2022/09/21 07:29:52;730952.00;2.44;1260.96;0.00;0.00;0.62;;;;;20.80;1.00;;;;;;2272457;61;1139;-86
2022/09/21 07:32:19;261102.00;0.87;451.04;0.00;0.00;0.62;;;;;20.40;1.00;;;;;;2272343;61;1310;-85
2022/09/21 07:34:47;270464.00;0.90;467.14;0.00;0.00;0.62;;;;;19.80;1.00;;;;;;2272419;61;1478;-87
2022/09/21 07:37:15;346916.00;1.16;598.56;0.00;0.00;0.62;;;;;19.80;1.00;;;;;;2272445;61;1094;-86
2022/09/21 07:39:41;305020.00;1.02;526.55;0.00;0.00;0.62;;;;;20.40;1.00;;;;;;2272396;61;1550;-87
2022/09/21 07:42:09;564244.00;1.88;972.52;0.00;0.00;0.62;;;;;20.70;1.00;;;;;;2272402;61;1370;-85
2022/09/21 07:44:35;413116.00;1.38;712.35;0.00;0.00;0.62;;;;;20.40;1.00;;;;;;2272183;61;1621;-86
2022/09/21 07:47:05;629241.00;2.10;1084.74;48955.00;0.16;85.38;;;;;20.10;1.00;;;;;;2272470;61;931;-86
2022/09/21 07:49:32;583335.00;1.94;1005.45;0.00;0.00;0.62;;;;;19.90;1.00;;;;;;2272500;61;2023;-86
2022/09/21 07:51:59;376266.00;1.25;649.01;0.00;0.00;0.62;;;;;20.80;1.00;;;;;;2272335;61;1577;-87
2022/09/21 07:54:27;399417.00;1.33;688.80;54714.00;0.18;95.34;;;;;20.70;1.00;;;;;;2272426;61;898;-86
2022/09/21 07:59:39;334094.00;1.11;576.52;0.00;0.00;0.62;;;;;20.60;1.00;;;;;;2272479;61;664;-89
2022/09/21 08:02:07;425695.00;1.42;733.98;0.00;0.00;0.62;;;;;20.50;1.00;;;;;;2272388;61;1399;-87
2022/09/21 08:04:34;469262.00;1.56;808.92;0.00;0.00;0.62;;;;;20.30;1.00;;;;;;2272398;61;1135;-86
2022/09/21 08:07:01;279934.00;0.93;483.42;0.00;0.00;0.62;;;;;20.40;1.00;;;;;;2272342;61;1139;-86
2022/09/21 08:09:28;416042.00;1.39;717.39;0.00;0.00;0.62;;;;;20.50;1.00;;;;;;2272313;61;1922;-85
2022/09/21 08:11:55;456294.00;1.52;786.61;0.00;0.00;0.62;;;;;20.70;1.00;;;;;;2272289;61;1572;-87
2022/09/21 08:14:28;589907.00;1.97;1016.80;33877.00;0.11;59.29;;;;;20.50;1.00;;;;;;2272352;61;974;-87
2022/09/21 08:16:54;518545.00;1.73;893.76;0.00;0.00;0.62;;;;;19.60;1.00;;;;;;2272361;61;1032;-87
2022/09/21 08:19:26;465949.00;1.55;803.22;21056.00;0.07;37.10;;;;;19.20;1.00;;;;;;2272216;61;1372;-85
2022/09/21 08:21:55;552609.00;1.84;952.46;25978.00;0.09;45.62;;;;;19.20;1.00;;;;;;2272301;61;1472;-87
2022/09/21 08:24:22;510084.00;1.70;879.19;0.00;0.00;0.62;;;;;19.00;1.00;;;;;;2272270;61;2206;-85
2022/09/21 08:26:51;502414.00;1.67;865.98;0.00;0.00;0.62;;;;;19.50;1.00;;;;;;2272276;61;1499;-88
2022/09/21 08:29:18;382828.00;1.28;660.29;0.00;0.00;0.62;;;;;19.70;1.00;;;;;;2272199;61;1916;-88
2022/09/21 08:31:45;500671.00;1.67;862.98;0.00;0.00;0.62;;;;;19.00;1.00;;;;;;2272251;61;1255;-88
2022/09/21 08:34:18;228879.00;0.76;395.62;0.00;0.00;0.62;;;;;18.40;1.00;;;;;;2272283;61;917;-88
2022/09/21 08:36:46;432182.00;1.44;745.14;44252.00;0.15;77.24;;;;;18.10;1.00;;;;;;2272289;61;1059;-88
2022/09/21 08:39:13;529150.00;1.76;912.03;26827.00;0.09;47.09;;;;;18.00;1.00;;;;;;2272311;61;1104;-88
2022/09/21 08:41:59;589794.00;1.97;1016.60;61930.00;0.21;107.81;;;;;17.90;1.00;;;;;;2272195;61;1592;-88
2022/09/21 08:44:36;451378.00;1.50;778.15;0.00;0.00;0.62;;;;;17.10;1.00;;;;;;2272264;61;1116;-88
2022/09/21 08:47:10;666600.00;2.22;1149.37;70872.00;0.24;123.27;;;;;17.00;1.00;;;;;;2272225;61;1423;-88
2022/09/21 08:49:41;521694.00;1.74;899.18;0.00;0.00;0.62;;;;;16.90;1.00;;;;;;2272241;61;1934;-87
2022/09/21 08:52:14;396580.00;1.32;683.93;0.00;0.00;0.62;;;;;16.60;1.00;;;;;;2272237;61;1356;-87
2022/09/21 08:54:49;716905.00;2.39;1236.57;0.00;0.00;0.62;;;;;16.10;1.00;;;;;;2272543;61;977;-86
2022/09/21 08:57:17;606565.00;2.02;1045.56;44708.00;0.15;78.03;;;;;15.90;1.00;;;;;;2272869;61;1501;-86
2022/09/21 08:59:46;682839.00;2.28;1177.49;0.00;0.00;0.62;;;;;15.70;1.00;;;;;;2272933;61;1101;-87
2022/09/21 09:02:41;522895.00;1.74;901.25;0.00;0.00;0.62;;;;;15.80;1.00;;;;;;2272892;61;1269;-87
2022/09/21 09:05:25;738436.00;2.46;1273.96;0.00;0.00;0.62;;;;;16.20;1.00;;;;;;2271382;61;1126;-87
2022/09/21 09:08:13;596403.00;1.99;1028.01;0.00;0.00;0.62;;;;;15.60;1.00;;;;;;2272772;61;2010;-90
2022/09/21 09:10:51;583819.00;1.95;1006.29;0.00;0.00;0.62;;;;;15.50;1.00;;;;;;2272918;61;991;-89
2022/09/21 09:13:37;664958.00;2.22;1146.52;0.00;0.00;0.62;;;;;15.40;1.00;;;;;;2272804;61;1600;-87
2022/09/21 09:16:21;776854.00;2.59;1340.79;46111.00;0.15;80.46;;;;;15.30;1.00;;;;;;2272843;61;1507;-87
2022/09/21 09:18:53;620725.00;2.07;1070.02;0.00;0.00;0.62;;;;;15.50;1.00;;;;;;2272921;61;1095;-87
2022/09/21 09:21:26;645362.00;2.15;1112.61;0.00;0.00;0.62;;;;;15.70;1.00;;;;;;2272860;61;1477;-87
2022/09/21 09:24:02;480383.00;1.60;828.06;0.00;0.00;0.62;;;;;15.90;1.00;;;;;;2272858;61;1500;-87
2022/09/21 09:26:36;736213.00;2.45;1270.09;0.00;0.00;0.62;;;;;15.70;1.00;;;;;;2272922;61;1019;-89
2022/09/21 09:29:12;429495.00;1.43;740.52;0.00;0.00;0.62;;;;;15.60;1.00;;;;;;2272767;61;1982;-87
2022/09/21 09:31:41;556722.00;1.86;959.55;0.00;0.00;0.62;;;;;15.30;1.00;;;;;;2272782;61;1282;-86
2022/09/21 09:34:15;455248.00;1.52;784.81;0.00;0.00;0.62;;;;;14.90;1.00;;;;;;2272840;61;1038;-85
2022/09/21 09:36:48;674759.00;2.25;1163.49;0.00;0.00;0.62;;;;;15.10;1.00;;;;;;2272830;61;1091;-87
2022/09/21 09:39:19;642713.00;2.14;1108.03;23203.00;0.08;40.82;;;;;15.20;1.00;;;;;;2272880;61;1006;-87
2022/09/21 09:42:15;465988.00;1.55;803.29;0.00;0.00;0.62;;;;;15.00;1.00;;;;;;2272804;61;1294;-87
2022/09/21 09:45:02;440255.00;1.47;759.02;0.00;0.00;0.62;;;;;15.00;1.00;;;;;;2272798;61;1004;-86
2022/09/21 09:47:44;138150208.00;460.50;106853240.00;61259.00;0.20;106.65;;;;;15.10;1.00;;;;;;2272776;61;1055;-87
2022/09/21 09:50:18;708955.00;2.36;1222.77;25624.00;0.09;45.01;;;;;14.90;1.00;;;;;;2272777;61;939;-87
2022/09/21 09:52:47;756256.00;2.52;1304.94;42953.00;0.14;75.00;;;;;15.60;1.00;;;;;;2272731;61;1261;-88
2022/09/21 09:55:20;615458.00;2.05;1060.92;0.00;0.00;0.62;;;;;16.10;1.00;;;;;;2272739;61;1575;-88
2022/09/21 09:57:49;633471.00;2.11;1092.05;0.00;0.00;0.62;;;;;16.20;1.00;;;;;;2272770;61;1103;-88
2022/09/21 10:00:22;569187.00;1.90;981.04;6649.00;0.02;12.14;;;;;16.10;1.00;;;;;;2272742;61;1558;-86
2022/09/21 10:02:50;793751.00;2.65;1370.23;12189.00;0.04;21.74;;;;;15.90;1.00;;;;;;2272698;61;1729;-87
2022/09/21 10:05:23;685269.00;2.28;1181.70;46020.00;0.15;80.30;;;;;15.80;1.00;;;;;;2272741;61;1034;-87
2022/09/21 10:07:51;713250.00;2.38;1230.22;0.00;0.00;0.62;;;;;16.00;1.00;;;;;;2272584;61;1023;-88
2022/09/21 10:10:40;622241.00;2.07;1072.64;39757.00;0.13;69.47;;;;;16.10;1.00;;;;;;2272662;61;1596;-86